• Join FlightAware (Why Join?)
  • Login
  • US Flag 
11:27AM EDT


 

Airport Tracker/Info


-or-


 

Live Flight TrackerFlight Track Log ✈ ASA246 ✈ 12-May-2013 ✈ KSFO - MMSD / SJD

Flight Track Log - Related Links

Times and Time Zones

All times are in EDT time to prevent confusion due to time zone crossing. See the ASA246 flight status page for this flight to view local times or setup timezone preferences in your user account.

Time Position Orientation Groundspeed Altitude Reporting Facility
EDT Latitude Longitude Course Direction KTS MPH feet Rate Location/Type
03:08PM 37.6322 -122.4061 180° South 159 183 1,700  Level Oakland Center
03:09PM 37.6500 -122.4500 297° West 207 238 2,800 2,100 Climbing Northern Cal TRACON
03:10PM 37.6667 -122.5167 288° West 249 287 5,100 2,640 Climbing Northern Cal TRACON
03:11PM 37.5786 -122.5497 197° South 261 300 9,400 2,340 Climbing Oakland Center
03:12PM 37.5022 -122.5522 181° South 271 312 11,100 1,680 Climbing Oakland Center
03:13PM 37.4050 -122.5564 182° South 337 388 12,900 2,160 Climbing Oakland Center
03:14PM 37.0402 -122.5500 180° South  Level FlightAware Approximate
03:14PM 37.3022 -122.5606 182° South 361 415 15,500  Level Oakland Center
03:15PM 37.1717 -122.5644 181° South 386 444 18,300 2,340 Climbing Oakland Center
03:16PM 37.0589 -122.5681 181° South 401 461 20,300 2,220 Climbing Oakland Center
03:18PM 36.9419 -122.5681 180° South 421 484 22,900 2,040 Climbing Oakland Center
03:19PM 36.8258 -122.5344 167° South 430 495 24,500 1,560 Climbing Oakland Center
03:20PM 36.7050 -122.5028 168° South 441 507 26,100 1,740 Climbing Oakland Center
03:21PM 36.5936 -122.4378 155° Southeast 453 521 28,100 1,800 Climbing Oakland Center
03:22PM 36.5181 -122.3122 127° Southeast 456 525 29,900 1,680 Climbing Oakland Center
03:23PM 36.4411 -122.1908 128° Southeast 450 518 31,600 1,500 Climbing Oakland Center
03:24PM 36.3503 -122.0461 128° Southeast 445 512 33,000 660 Climbing Oakland Center
03:25PM 36.2736 -121.9272 129° Southeast 443 510 33,000  Level Oakland Center
03:26PM 36.1986 -121.8069 128° Southeast 443 510 33,000  Level Oakland Center
03:27PM 36.1281 -121.6975 129° Southeast 444 511 33,000  Level Oakland Center
03:28PM 36.0353 -121.5567 129° Southeast 443 510 33,000  Level Oakland Center
03:29PM 35.9597 -121.4367 128° Southeast 443 510 33,000  Level Oakland Center
03:30PM 35.8831 -121.3192 129° Southeast 442 509 33,000  Level Oakland Center
03:31PM 35.8064 -121.2019 129° Southeast 441 507 33,000  Level Oakland Center
03:32PM 35.7300 -121.0839 129° Southeast 441 507 33,000  Level Oakland Center
03:33PM 35.6522 -120.9656 129° Southeast 444 511 33,000  Level Oakland Center
03:34PM 35.5750 -120.8492 129° Southeast 443 510 33,000  Level Oakland Center
03:35PM 35.4975 -120.7303 129° Southeast 446 513 33,000  Level Oakland Center
03:36PM 35.4039 -120.5919 130° Southeast 445 512 33,000  Level Oakland Center
03:37PM 35.3386 -120.4942 129° Southeast 448 516 33,000  Level Oakland Center
03:37PM 35.2914 -120.4208 128° Southeast 452 520 33,000  Level Los Angeles Center
03:38PM 35.2136 -120.3014 129° Southeast 449 517 33,000  Level Los Angeles Center
03:39PM 35.1353 -120.1831 129° Southeast 446 513 33,000  Level Los Angeles Center
03:40PM 35.0489 -120.0544 129° Southeast 448 516 33,000  Level Los Angeles Center
03:42PM 34.9708 -119.9381 129° Southeast 445 512 33,000  Level Los Angeles Center
03:43PM 34.8906 -119.8211 130° Southeast 449 517 33,000  Level Los Angeles Center
03:44PM 34.8122 -119.7033 129° Southeast 449 517 33,000  Level Los Angeles Center
03:45PM 34.7344 -119.5861 129° Southeast 447 514 33,000  Level Los Angeles Center
03:46PM 34.6389 -119.4456 130° Southeast 450 518 33,000  Level Los Angeles Center
03:47PM 34.5797 -119.3633 131° Southeast 446 513 33,000  Level Los Angeles Center
03:48PM 34.4844 -119.2247 130° Southeast 446 513 33,000  Level Los Angeles Center
03:49PM 34.4044 -119.1100 130° Southeast 447 514 33,000  Level Los Angeles Center
03:50PM 34.3089 -118.9728 130° Southeast 444 511 33,000  Level Los Angeles Center
03:51PM 34.2297 -118.8594 130° Southeast 442 509 33,000  Level Los Angeles Center
03:52PM 34.1517 -118.7453 130° Southeast 442 509 33,000  Level Los Angeles Center
03:53PM 34.0722 -118.6319 130° Southeast 442 509 33,000  Level Los Angeles Center
03:54PM 33.9922 -118.5175 130° Southeast 444 511 33,000  Level Los Angeles Center
03:55PM 33.9111 -118.4064 131° Southeast 441 507 33,000  Level Los Angeles Center
03:56PM 33.8108 -118.2972 138° Southeast 447 514 33,000  Level Los Angeles Center
03:57PM 33.7172 -118.1972 138° Southeast 450 518 33,000  Level Los Angeles Center
03:58PM 33.6033 -118.0739 138° Southeast 456 525 33,000  Level Los Angeles Center
03:59PM 33.5081 -117.9744 139° Southeast 455 524 33,000  Level Los Angeles Center
04:00PM 33.4147 -117.8753 138° Southeast 451 519 33,000  Level Los Angeles Center
04:01PM 33.3206 -117.7761 139° Southeast 451 519 33,000  Level Los Angeles Center
04:02PM 33.2264 -117.6761 138° Southeast 452 520 33,000  Level Los Angeles Center
04:03PM 33.1336 -117.5783 139° Southeast 449 517 33,000  Level Los Angeles Center
04:04PM 33.0222 -117.4589 138° Southeast 448 516 33,000  Level Los Angeles Center
04:05PM 32.9303 -117.3608 138° Southeast 445 512 33,000  Level Los Angeles Center
04:06PM 32.8358 -117.2622 139° Southeast 449 517 33,000  Level Los Angeles Center
04:07PM 32.7456 -117.1672 138° Southeast 447 514 33,000  Level Los Angeles Center
04:08PM 32.6497 -117.0669 139° Southeast 458 527 33,000  Level Los Angeles Center
04:09PM 32.5358 -116.9522 140° Southeast 452 520 33,000  Level Los Angeles Center
04:11PM 32.4229 -116.8944 157° South  Level FlightAware Approximate
04:18PM 31.6586 -116.5140 157° South  Level FlightAware Approximate
04:19PM 31.5493 -116.4601 157° South  Level FlightAware Approximate
04:20PM 31.4400 -116.4064 157° South  Level FlightAware Approximate
04:21PM 31.3306 -116.3528 157° South  Level FlightAware Approximate
04:22PM 31.2213 -116.2993 157° South  Level FlightAware Approximate
04:23PM 31.1119 -116.2460 157° South  Level FlightAware Approximate
04:24PM 31.0025 -116.1928 157° South  Level FlightAware Approximate
04:25PM 30.8931 -116.1397 157° South  Level FlightAware Approximate
04:26PM 30.7836 -116.0867 157° South  Level FlightAware Approximate
04:27PM 30.6742 -116.0338 157° South  Level FlightAware Approximate
04:28PM 30.5647 -115.9811 157° South  Level FlightAware Approximate
04:29PM 30.4667 -115.9091 133° Southeast  Level FlightAware Approximate
04:30PM 30.3851 -115.8094 133° Southeast  Level FlightAware Approximate
04:31PM 30.3035 -115.7098 133° Southeast  Level FlightAware Approximate
04:32PM 30.2218 -115.6104 134° Southeast  Level FlightAware Approximate
04:33PM 30.1401 -115.5111 134° Southeast  Level FlightAware Approximate
04:34PM 30.0583 -115.4120 134° Southeast  Level FlightAware Approximate
04:35PM 29.9763 -115.3131 134° Southeast  Level FlightAware Approximate
04:36PM 29.8944 -115.2143 134° Southeast  Level FlightAware Approximate
04:37PM 29.8123 -115.1157 134° Southeast  Level FlightAware Approximate
04:38PM 29.7302 -115.0173 134° Southeast  Level FlightAware Approximate
04:39PM 29.6480 -114.9190 134° Southeast  Level FlightAware Approximate
04:40PM 29.5657 -114.8209 134° Southeast  Level FlightAware Approximate
04:41PM 29.4834 -114.7229 134° Southeast  Level FlightAware Approximate
04:42PM 29.4014 -114.6246 134° Southeast  Level FlightAware Approximate
04:43PM 29.3197 -114.5261 134° Southeast  Level FlightAware Approximate
04:44PM 29.2379 -114.4277 134° Southeast  Level FlightAware Approximate
04:45PM 29.1561 -114.3296 134° Southeast  Level FlightAware Approximate
04:46PM 29.0742 -114.2315 134° Southeast  Level FlightAware Approximate
04:47PM 28.9922 -114.1336 134° Southeast  Level FlightAware Approximate
04:48PM 28.9088 -114.0374 136° Southeast  Level FlightAware Approximate
04:49PM 28.8239 -113.9429 136° Southeast  Level FlightAware Approximate
04:50PM 28.7390 -113.8486 136° Southeast  Level FlightAware Approximate
04:51PM 28.6540 -113.7545 136° Southeast  Level FlightAware Approximate
04:52PM 28.5692 -113.6601 136° Southeast  Level FlightAware Approximate
04:53PM 28.4844 -113.5659 136° Southeast  Level FlightAware Approximate
04:54PM 28.3996 -113.4717 136° Southeast  Level FlightAware Approximate
04:55PM 28.3154 -113.3770 135° Southeast  Level FlightAware Approximate
04:56PM 28.2318 -113.2816 137° Southeast  Level FlightAware Approximate
04:57PM 28.1455 -113.1894 137° Southeast  Level FlightAware Approximate
04:58PM 28.0592 -113.0974 137° Southeast  Level FlightAware Approximate
04:59PM 27.9731 -113.0051 135° Southeast  Level FlightAware Approximate
05:00PM 27.8890 -112.9105 135° Southeast  Level FlightAware Approximate
05:01PM 27.8039 -112.8173 137° Southeast  Level FlightAware Approximate
05:02PM 27.7177 -112.7254 137° Southeast  Level FlightAware Approximate
05:03PM 27.6315 -112.6335 137° Southeast  Level FlightAware Approximate
05:04PM 27.5465 -112.5404 135° Southeast  Level FlightAware Approximate
05:05PM 27.4622 -112.4465 135° Southeast  Level FlightAware Approximate
05:06PM 27.3778 -112.3528 135° Southeast  Level FlightAware Approximate
05:07PM 27.2919 -112.2612 149° Southeast  Level FlightAware Approximate
05:08PM 27.1899 -112.1933 149° Southeast  Level FlightAware Approximate
05:09PM 27.0889 -112.1236 148° Southeast  Level FlightAware Approximate
05:10PM 26.9885 -112.0530 148° Southeast  Level FlightAware Approximate
05:11PM 26.8880 -111.9825 148° Southeast  Level FlightAware Approximate
05:12PM 26.7875 -111.9121 148° Southeast  Level FlightAware Approximate
05:13PM 26.6870 -111.8418 148° Southeast  Level FlightAware Approximate
05:14PM 26.5864 -111.7717 148° Southeast  Level FlightAware Approximate
05:15PM 26.4858 -111.7017 148° Southeast  Level FlightAware Approximate
05:16PM 26.3867 -111.6290 147° Southeast  Level FlightAware Approximate
05:17PM 26.2876 -111.5564 147° Southeast  Level FlightAware Approximate
05:18PM 26.1878 -111.4853 148° Southeast  Level FlightAware Approximate
05:19PM 26.0870 -111.4159 148° Southeast  Level FlightAware Approximate
05:20PM 25.9861 -111.3466 148° Southeast  Level FlightAware Approximate
05:21PM 25.9056 -111.2513 130° Southeast  Level FlightAware Approximate
05:22PM 25.8300 -111.1499 130° Southeast  Level FlightAware Approximate
05:23PM 25.7543 -111.0486 130° Southeast  Level FlightAware Approximate
05:24PM 25.6786 -110.9475 130° Southeast  Level FlightAware Approximate
05:25PM 25.6027 -110.8464 130° Southeast  Level FlightAware Approximate
05:26PM 25.5268 -110.7455 130° Southeast  Level FlightAware Approximate
05:27PM 25.4509 -110.6448 130° Southeast  Level FlightAware Approximate
05:28PM 25.3748 -110.5441 130° Southeast  Level FlightAware Approximate
05:29PM 25.2992 -110.4432 130° Southeast  Level FlightAware Approximate
05:30PM 25.2235 -110.3423 130° Southeast  Level FlightAware Approximate
05:31PM 25.1473 -110.2420 131° Southeast  Level FlightAware Approximate
05:32PM 25.0697 -110.1431 131° Southeast  Level FlightAware Approximate
05:33PM 24.9920 -110.0443 131° Southeast  Level FlightAware Approximate
05:34PM 24.9224 -109.9391 138° Southeast  Level FlightAware Approximate
05:35PM 24.8438 -109.8417 130° Southeast  Level FlightAware Approximate
05:36PM 24.7607 -109.7496 142° Southeast  Level FlightAware Approximate
05:37PM 24.6661 -109.6712 147° Southeast  Level FlightAware Approximate
05:38PM 24.5664 -109.6007 147° Southeast  Level FlightAware Approximate
05:39PM 24.4667 -109.5303 147° Southeast  Level FlightAware Approximate
05:40PM 24.3664 -109.4609 149° Southeast  Level FlightAware Approximate
05:41PM 24.2603 -109.4270 193° South  Level FlightAware Approximate
05:42PM 24.1450 -109.4572 193° South  Level FlightAware Approximate
05:43PM 24.0297 -109.4872 193° South  Level FlightAware Approximate
05:44PM 23.9144 -109.5167 180° South  Level FlightAware Approximate
05:45PM 23.7979 -109.5394 191° South  Level FlightAware Approximate
05:46PM 23.6834 -109.5722 197° South  Level FlightAware Approximate
05:47PM 23.5701 -109.6100 197° South  Level FlightAware Approximate
05:48PM 23.4541 -109.6359 190° South  Level FlightAware Approximate
05:49PM 23.3379 -109.6614 193° South  Level FlightAware Approximate
05:50PM 23.2249 -109.6967 200° South  Level FlightAware Approximate
05:51PM 23.1518 -109.7210 190° South  Level Estimated
05:52PM 23.1518 -109.7210 190° South  Level Estimated
05:53PM 23.1518 -109.7210 190° South  Level Estimated
05:54PM 23.1518 -109.7210 190° South  Level Estimated
05:55PM 23.1518 -109.7210 190° South  Level Estimated
05:56PM 23.1518 -109.7210 190° South  Level Estimated
05:57PM 23.1518 -109.7210 190° South  Level Estimated
05:58PM 23.1518 -109.7210 190° South  Level Estimated
05:59PM 23.1518 -109.7210 190° South  Level Estimated
06:00PM 23.1518 -109.7210 190° South  Level Estimated
06:01PM 23.1518 -109.7210 190° South  Level Estimated